Time;durP1;ratioP1;P1;durP2;ratioP2;P2;SDS_P1;SDS_P2;PMS_P1;PMS_P2;Temp;Humidity;BMP_temperature;BMP_pressure;BME280_temperature;BME280_humidity;BME280_pressure;Samples;Min_cycle;Max_cycle;Signal;HPM_P1;HPM_P2
2021/07/16 00:01:59;;;;;;;39.53;11.35;;;;;;;20.28;100.00;100781.93;1817674;79;21074;-76
2021/07/16 00:04:25;;;;;;;31.00;10.93;;;;;;;20.25;100.00;100777.66;1817425;79;21601;-76
2021/07/16 00:06:51;;;;;;;36.45;11.28;;;;;;;20.24;100.00;100766.48;1812988;78;21468;-77
2021/07/16 00:09:20;;;;;;;36.65;11.15;;;;;;;20.23;100.00;100756.64;1817711;79;20895;-77
2021/07/16 00:11:47;;;;;;;34.70;11.12;;;;;;;20.20;100.00;100756.72;1817602;79;20979;-76
2021/07/16 00:14:12;;;;;;;32.75;11.63;;;;;;;20.17;100.00;100749.16;1817819;79;21276;-74
2021/07/16 00:16:38;;;;;;;31.57;10.63;;;;;;;20.10;100.00;100746.09;1817621;79;21014;-77
2021/07/16 00:19:05;;;;;;;35.33;10.90;;;;;;;20.12;100.00;100743.29;1817590;79;20978;-76
2021/07/16 00:21:35;;;;;;;23.62;9.53;;;;;;;20.08;100.00;100737.39;1817491;79;21042;-82
2021/07/16 00:24:00;;;;;;;21.17;7.80;;;;;;;20.06;100.00;100734.16;1816925;79;20993;-76
2021/07/16 00:26:28;;;;;;;22.05;8.58;;;;;;;20.04;100.00;100730.40;1817763;79;21075;-76
2021/07/16 00:28:54;;;;;;;29.87;8.68;;;;;;;20.01;100.00;100726.14;1816009;78;21043;-75
2021/07/16 00:31:20;;;;;;;27.48;8.43;;;;;;;19.94;100.00;100728.78;1815353;79;21027;-78
2021/07/16 00:33:46;;;;;;;26.15;7.80;;;;;;;19.93;100.00;100729.89;1818775;78;21066;-76
2021/07/16 00:36:12;;;;;;;23.92;7.00;;;;;;;19.94;100.00;100731.52;1829654;78;20965;-74
2021/07/16 00:38:38;;;;;;;23.42;7.05;;;;;;;19.93;100.00;100735.92;1829523;78;21115;-76
2021/07/16 00:41:07;;;;;;;29.18;7.65;;;;;;;19.92;100.00;100736.49;1829424;78;21655;-76
2021/07/16 00:43:33;;;;;;;19.30;6.42;;;;;;;19.95;100.00;100736.42;1829162;78;20986;-74
2021/07/16 00:45:59;;;;;;;20.55;7.15;;;;;;;19.96;100.00;100739.39;1801756;78;21017;-77
2021/07/16 00:48:24;;;;;;;19.92;6.80;;;;;;;19.96;100.00;100734.72;1829603;78;20868;-76
2021/07/16 00:50:54;;;;;;;17.60;6.33;;;;;;;19.94;100.00;100733.42;1829386;78;20941;-76
2021/07/16 00:53:21;;;;;;;25.50;6.80;;;;;;;19.90;100.00;100732.46;1829309;78;20977;-84
2021/07/16 00:55:48;;;;;;;25.72;6.72;;;;;;;19.89;100.00;100739.87;1829548;78;21576;-76
2021/07/16 00:58:16;;;;;;;26.60;6.75;;;;;;;19.85;100.00;100728.50;1829594;78;21422;-76
2021/07/16 01:00:44;;;;;;;24.23;6.90;;;;;;;19.80;100.00;100730.05;1829528;78;21528;-74
2021/07/16 01:03:10;;;;;;;21.12;6.72;;;;;;;19.80;100.00;100730.84;1829274;78;21060;-76
2021/07/16 01:05:39;;;;;;;20.68;6.70;;;;;;;19.81;100.00;100731.08;1802100;78;20982;-76
2021/07/16 01:08:05;;;;;;;21.97;6.60;;;;;;;19.77;100.00;100723.28;1828964;78;21033;-76
2021/07/16 01:10:31;;;;;;;19.92;5.80;;;;;;;19.73;100.00;100726.39;1829573;77;21022;-81
2021/07/16 01:13:04;;;;;;;18.32;6.40;;;;;;;19.72;100.00;100734.36;1829492;78;21069;-76
2021/07/16 01:15:32;;;;;;;23.30;6.47;;;;;;;19.72;100.00;100740.62;1753442;81;21085;-76
2021/07/16 01:17:59;;;;;;;23.10;6.00;;;;;;;19.72;100.00;100738.46;1753469;81;21434;-77
2021/07/16 01:20:29;;;;;;;20.92;6.20;;;;;;;19.69;100.00;100739.09;1753710;81;21040;-76
2021/07/16 01:22:57;;;;;;;14.03;5.17;;;;;;;19.63;100.00;100732.14;1753747;81;21052;-76
2021/07/16 01:25:28;;;;;;;18.85;6.10;;;;;;;19.63;100.00;100741.14;1753806;81;21063;-73
2021/07/16 01:27:57;;;;;;;15.53;5.78;;;;;;;19.61;100.00;100740.64;1744845;81;22097;-76
2021/07/16 01:30:27;;;;;;;16.60;5.65;;;;;;;19.59;100.00;100743.44;1762592;81;21025;-74
2021/07/16 01:32:55;;;;;;;20.08;6.08;;;;;;;19.57;100.00;100744.34;1762568;81;21014;-75
2021/07/16 01:35:22;;;;;;;20.08;6.00;;;;;;;19.54;100.00;100747.70;1762416;81;21494;-75
2021/07/16 01:37:48;;;;;;;19.65;5.25;;;;;;;19.54;100.00;100747.70;1762469;81;21007;-76
2021/07/16 01:40:20;;;;;;;18.50;5.65;;;;;;;19.50;100.00;100743.41;1762545;81;20998;-76
2021/07/16 01:42:51;;;;;;;16.73;4.65;;;;;;;19.48;100.00;100743.74;1762395;81;21400;-76
2021/07/16 01:45:21;;;;;;;15.55;5.65;;;;;;;19.48;100.00;100739.64;1762432;81;21138;-76
2021/07/16 01:47:52;;;;;;;13.53;5.03;;;;;;;19.47;100.00;100740.77;1762258;80;21055;-76
2021/07/16 01:50:19;;;;;;;14.73;4.85;;;;;;;19.42;100.00;100738.17;1718617;82;21077;-76
2021/07/16 01:52:46;;;;;;;18.12;5.30;;;;;;;19.40;100.00;100739.05;1718714;83;21958;-75
2021/07/16 01:55:16;;;;;;;18.92;5.05;;;;;;;19.39;100.00;100736.08;1718653;83;21552;-74
2021/07/16 01:57:47;;;;;;;21.25;5.45;;;;;;;19.41;100.00;100731.64;1718657;83;21064;-76
2021/07/16 02:00:19;;;;;;;18.37;4.72;;;;;;;19.44;100.00;100735.94;1635694;87;21047;-73
2021/07/16 02:02:49;;;;;;;17.90;4.95;;;;;;;19.47;100.00;100735.31;1589284;90;21046;-76
2021/07/16 02:05:15;;;;;;;15.28;5.05;;;;;;;19.49;100.00;100742.61;1555558;92;21128;-76
2021/07/16 02:07:41;;;;;;;16.23;5.70;;;;;;;19.53;100.00;100735.97;1554976;92;22872;-82
2021/07/16 02:10:12;;;;;;;14.60;4.80;;;;;;;19.55;100.00;100737.81;1555610;92;21048;-76
2021/07/16 02:12:38;;;;;;;16.60;5.12;;;;;;;19.56;100.00;100730.41;1555261;92;21079;-76
2021/07/16 02:15:15;;;;;;;15.18;5.62;;;;;;;19.57;100.00;100730.67;1555657;92;21048;-75
2021/07/16 02:17:41;;;;;;;15.43;4.62;;;;;;;19.60;100.00;100739.61;1553035;92;21187;-76
2021/07/16 02:20:25;;;;;;;15.23;5.20;;;;;;;19.63;100.00;100739.77;1540814;93;21530;-76
2021/07/16 02:22:56;;;;;;;12.20;4.30;;;;;;;19.70;100.00;100736.03;1540783;93;21111;-77
2021/07/16 02:25:24;;;;;;;18.52;4.83;;;;;;;19.76;100.00;100739.42;1556676;91;21070;-77
2021/07/16 02:27:54;;;;;;;17.20;4.80;;;;;;;19.82;100.00;100738.14;1562609;91;21113;-77
2021/07/16 02:30:22;;;;;;;15.00;4.85;;;;;;;19.86;100.00;100736.97;1531123;91;22025;-76
2021/07/16 02:32:48;;;;;;;11.97;4.60;;;;;;;19.92;100.00;100731.02;1530200;93;21797;-77
2021/07/16 02:35:15;;;;;;;15.55;5.30;;;;;;;20.00;100.00;100726.70;1530642;93;21116;-76
2021/07/16 02:37:42;;;;;;;18.05;5.42;;;;;;;20.08;100.00;100731.92;1530377;93;21175;-81
2021/07/16 02:40:11;;;;;;;19.98;5.33;;;;;;;20.15;100.00;100731.70;1530971;93;21139;-77
2021/07/16 02:42:37;;;;;;;21.37;5.15;;;;;;;20.26;100.00;100730.80;1530692;93;21584;-77
2021/07/16 02:45:10;;;;;;;20.27;5.58;;;;;;;20.33;100.00;100727.61;1530526;93;21098;-76
2021/07/16 02:47:37;;;;;;;13.70;5.15;;;;;;;20.41;100.00;100724.03;1550676;92;21051;-76
2021/07/16 02:50:15;;;;;;;13.88;4.70;;;;;;;20.56;100.00;100723.59;1560055;92;21071;-75
2021/07/16 02:52:42;;;;;;;14.47;5.78;;;;;;;20.73;100.00;100729.59;1559923;92;21219;-80
2021/07/16 02:55:11;;;;;;;20.65;6.17;;;;;;;20.93;100.00;100728.67;1560064;92;22014;-74
2021/07/16 02:57:38;;;;;;;19.10;5.47;;;;;;;21.11;100.00;100730.22;1620687;86;21042;-75
2021/07/16 03:00:08;;;;;;;18.25;5.65;;;;;;;21.23;100.00;100736.39;1609088;89;21081;-75
2021/07/16 03:02:40;;;;;;;30.50;6.08;;;;;;;21.32;100.00;100736.62;1609562;87;21013;-75
2021/07/16 03:05:09;;;;;;;21.52;6.10;;;;;;;21.47;100.00;100735.84;1559536;90;21112;-76
2021/07/16 03:07:35;;;;;;;32.63;7.72;;;;;;;21.61;100.00;100732.30;1582163;90;21079;-75
2021/07/16 03:10:00;;;;;;;28.47;6.45;;;;;;;21.81;100.00;100730.73;1582256;90;21059;-74
2021/07/16 03:12:26;;;;;;;21.48;7.67;;;;;;;21.98;100.00;100730.62;1582222;90;20946;-76
2021/07/16 03:14:52;;;;;;;25.50;6.67;;;;;;;22.13;100.00;100725.11;1572857;90;20933;-73
2021/07/16 03:17:22;;;;;;;22.13;7.58;;;;;;;22.29;100.00;100719.84;1613305;89;21099;-76
2021/07/16 03:19:47;;;;;;;22.35;7.08;;;;;;;22.51;100.00;100713.20;1595623;89;21257;-76
2021/07/16 03:22:13;;;;;;;26.82;7.42;;;;;;;22.77;100.00;100708.02;1666070;85;21066;-74
2021/07/16 03:24:39;;;;;;;21.33;7.90;;;;;;;23.04;100.00;100707.99;1662605;85;21010;-75
2021/07/16 03:27:06;;;;;;;22.27;6.85;;;;;;;23.38;100.00;100705.36;1666534;85;20964;-77
2021/07/16 03:29:31;;;;;;;23.35;6.92;;;;;;;23.75;100.00;100712.27;1688446;83;21617;-77
2021/07/16 03:31:57;;;;;;;26.05;7.47;;;;;;;24.07;100.00;100717.36;1730365;82;20994;-77
2021/07/16 03:34:23;;;;;;;18.32;7.28;;;;;;;24.29;100.00;100718.77;1705932;82;21673;-77
2021/07/16 03:36:49;;;;;;;45.88;12.10;;;;;;;24.53;100.00;100732.27;1730352;82;21051;-77
2021/07/16 03:39:15;;;;;;;51.55;14.75;;;;;;;24.81;100.00;100734.42;1707276;83;20959;-77
2021/07/16 03:41:43;;;;;;;53.23;15.03;;;;;;;25.13;100.00;100729.78;1739226;80;21653;-79
2021/07/16 03:44:10;;;;;;;48.00;13.32;;;;;;;25.49;100.00;100731.23;1787472;80;21018;-77
2021/07/16 03:46:35;;;;;;;33.53;12.37;;;;;;;25.80;100.00;100727.05;1787763;80;21031;-77
2021/07/16 03:49:01;;;;;;;35.68;10.80;;;;;;;26.21;100.00;100726.19;1787792;80;20974;-77
2021/07/16 03:51:27;;;;;;;31.10;10.10;;;;;;;26.44;100.00;100724.06;1787804;80;21078;-77
2021/07/16 03:53:53;;;;;;;24.85;8.35;;;;;;;26.65;100.00;100727.86;1787758;80;21648;-77
2021/07/16 03:56:19;;;;;;;28.50;8.03;;;;;;;26.95;100.00;100731.59;1787829;80;21183;-80
2021/07/16 03:58:46;;;;;;;21.35;8.33;;;;;;;27.16;100.00;100727.63;1787661;80;21768;-77
2021/07/16 04:01:14;;;;;;;27.50;9.70;;;;;;;27.54;100.00;100721.13;1787503;80;20992;-76
2021/07/16 04:03:40;;;;;;;26.52;8.93;;;;;;;27.96;100.00;100719.38;1787720;80;21088;-77
2021/07/16 04:06:09;;;;;;;30.35;9.68;;;;;;;28.38;100.00;100720.48;1763530;80;21153;-77
2021/07/16 04:08:37;;;;;;;38.55;12.25;;;;;;;28.86;100.00;100715.70;1787287;80;22120;-77
2021/07/16 04:11:03;;;;;;;36.98;12.37;;;;;;;29.43;100.00;100718.37;1787425;80;21054;-77
2021/07/16 04:13:29;;;;;;;28.47;11.10;;;;;;;30.03;100.00;100713.59;1787706;80;21037;-77
2021/07/16 04:15:54;;;;;;;42.25;11.25;;;;;;;30.53;100.00;100714.63;1787565;80;21043;-77
2021/07/16 04:18:20;;;;;;;54.08;12.03;;;;;;;31.04;100.00;100707.78;1787635;80;20868;-75
2021/07/16 04:20:46;;;;;;;39.10;12.05;;;;;;;31.34;100.00;100718.50;1787708;80;21944;-80
2021/07/16 04:23:12;;;;;;;33.02;10.55;;;;;;;31.70;100.00;100709.52;1763181;80;20943;-80
2021/07/16 04:25:38;;;;;;;27.50;10.25;;;;;;;32.20;100.00;100711.36;1787715;80;20963;-79
2021/07/16 04:28:05;;;;;;;26.82;9.78;;;;;;;32.63;97.41;100706.99;1788050;80;20990;-80
2021/07/16 04:30:33;;;;;;;30.97;10.05;;;;;;;33.05;96.03;100703.11;1787089;80;21066;-80
2021/07/16 04:33:01;;;;;;;26.42;8.95;;;;;;;33.75;90.74;100702.86;1787328;80;21173;-81
2021/07/16 04:35:29;;;;;;;26.23;9.85;;;;;;;34.04;82.31;100697.76;1787095;80;20997;-82
2021/07/16 04:37:55;;;;;;;29.67;9.78;;;;;;;34.29;84.57;100701.61;1787198;80;21113;-80
2021/07/16 04:40:23;;;;;;;23.12;8.78;;;;;;;34.70;80.50;100696.45;1760616;80;21008;-84
2021/07/16 04:42:52;;;;;;;19.27;9.20;;;;;;;34.98;73.98;100703.62;1787272;80;21027;-80
2021/07/16 04:45:19;;;;;;;25.25;9.05;;;;;;;35.30;76.43;100709.91;1787209;80;21179;-81
2021/07/16 04:47:45;;;;;;;30.02;10.03;;;;;;;35.88;70.74;100697.21;1787389;80;21039;-80
2021/07/16 04:50:13;;;;;;;36.77;11.43;;;;;;;36.51;65.39;100699.72;1787001;79;21226;-83
2021/07/16 04:52:43;;;;;;;27.60;9.33;;;;;;;36.94;63.79;100696.69;1786981;80;21026;-81
2021/07/16 04:55:10;;;;;;;26.42;9.30;;;;;;;37.22;60.17;100698.64;1787454;80;20988;-82
2021/07/16 04:57:36;;;;;;;30.92;10.03;;;;;;;37.57;57.46;100703.16;1787276;80;21127;-82
2021/07/16 05:00:09;;;;;;;25.62;10.63;;;;;;;37.83;54.18;100700.61;1787223;80;21495;-81
2021/07/16 05:02:35;;;;;;;21.48;10.48;;;;;;;38.03;51.75;100704.66;1787271;80;21125;-79
2021/07/16 05:05:02;;;;;;;27.22;10.90;;;;;;;38.23;51.99;100707.91;1782975;80;20888;-80
2021/07/16 05:07:28;;;;;;;27.90;10.28;;;;;;;38.66;48.78;100705.99;1787014;80;21014;-80
2021/07/16 05:09:54;;;;;;;27.25;11.88;;;;;;;38.84;47.86;100709.02;1787347;79;21147;-80
2021/07/16 05:12:20;;;;;;;26.75;11.68;;;;;;;38.97;47.25;100711.83;1787291;80;20954;-86
2021/07/16 05:14:45;;;;;;;37.53;13.62;;;;;;;39.28;46.91;100707.76;1787436;80;20975;-80
2021/07/16 05:17:11;;;;;;;37.88;14.80;;;;;;;39.71;45.08;100704.86;1787275;80;20899;-83
2021/07/16 05:19:37;;;;;;;44.25;18.20;;;;;;;40.05;43.70;100711.67;1787328;80;20888;-80
2021/07/16 05:22:03;;;;;;;61.85;22.25;;;;;;;40.50;42.43;100710.97;1787375;80;20907;-80
2021/07/16 05:24:30;;;;;;;63.25;20.97;;;;;;;40.81;42.05;100703.89;1787332;80;21035;-80
2021/07/16 05:26:57;;;;;;;58.40;20.10;;;;;;;41.26;41.28;100700.99;1787098;80;21582;-80
2021/07/16 05:29:24;;;;;;;46.10;18.37;;;;;;;41.51;40.27;100697.89;1787177;80;21696;-79
2021/07/16 05:31:50;;;;;;;43.87;17.42;;;;;;;41.78;40.21;100701.94;1787199;80;21019;-80
2021/07/16 05:34:17;;;;;;;46.77;18.00;;;;;;;42.05;39.13;100700.34;1787459;79;20935;-81
2021/07/16 05:36:43;;;;;;;46.80;17.45;;;;;;;42.24;38.42;100697.58;1787365;80;21023;-80
2021/07/16 05:39:09;;;;;;;38.20;16.42;;;;;;;42.55;37.09;100697.97;1787086;80;21000;-81
2021/07/16 05:41:35;;;;;;;46.20;16.27;;;;;;;42.77;37.02;100699.92;1787306;80;20923;-80
2021/07/16 05:44:02;;;;;;;35.98;15.40;;;;;;;42.93;36.23;100698.71;1783107;80;21107;-80
2021/07/16 05:46:30;;;;;;;31.85;15.45;;;;;;;43.22;35.94;100695.22;1760273;80;21068;-80
2021/07/16 05:48:55;;;;;;;33.80;14.87;;;;;;;43.51;35.23;100699.39;1787089;80;21003;-81
2021/07/16 05:51:21;;;;;;;43.63;15.30;;;;;;;43.94;34.77;100696.47;1787455;80;20898;-81
2021/07/16 05:53:47;;;;;;;40.73;16.30;;;;;;;44.17;34.02;100694.78;1782897;80;20880;-81
2021/07/16 05:56:13;;;;;;;33.95;15.10;;;;;;;44.48;33.21;100689.23;1787173;80;21633;-80
2021/07/16 05:58:39;;;;;;;40.03;15.30;;;;;;;44.71;32.29;100688.10;1780490;79;21076;-81
2021/07/16 06:01:05;;;;;;;28.73;13.60;;;;;;;44.70;32.40;100678.80;1777382;80;20952;-80
2021/07/16 06:03:30;;;;;;;29.48;13.50;;;;;;;44.96;30.66;100678.91;1774626;80;20869;-82
2021/07/16 06:05:56;;;;;;;27.22;12.30;;;;;;;45.10;29.97;100687.23;1774804;79;20861;-82
2021/07/16 06:08:22;;;;;;;26.80;12.75;;;;;;;45.25;29.33;100675.78;1774608;79;21670;-82
2021/07/16 06:10:50;;;;;;;36.53;14.40;;;;;;;45.53;30.00;100669.75;1774750;80;21134;-83
2021/07/16 06:13:17;;;;;;;34.67;14.45;;;;;;;45.73;29.02;100678.88;1774656;80;21488;-84
2021/07/16 06:15:43;;;;;;;28.55;14.60;;;;;;;45.97;28.62;100671.47;1773535;80;21500;-83
2021/07/16 06:18:09;;;;;;;33.65;15.38;;;;;;;46.26;27.48;100667.41;1774277;80;20845;-83
2021/07/16 06:20:35;;;;;;;31.73;15.20;;;;;;;46.52;28.03;100665.27;1774166;80;21000;-80
2021/07/16 06:23:01;;;;;;;40.60;16.75;;;;;;;46.70;26.94;100659.80;1773941;79;21887;-81
2021/07/16 06:25:27;;;;;;;38.25;15.83;;;;;;;46.84;26.32;100660.26;1773980;80;21020;-81
2021/07/16 06:27:53;;;;;;;43.60;16.45;;;;;;;47.08;25.82;100650.51;1774098;80;20960;-81
2021/07/16 06:30:19;;;;;;;44.53;15.80;;;;;;;47.24;25.14;100649.75;1772225;80;21083;-80
2021/07/16 06:35:13;;;;;;;37.17;15.32;;;;;;;47.69;25.28;100649.08;1699042;83;21079;-79
2021/07/16 06:37:39;;;;;;;29.75;13.62;;;;;;;48.05;24.01;100640.77;1699331;83;21064;-81
2021/07/16 06:40:07;;;;;;;27.82;13.95;;;;;;;48.40;23.29;100640.20;1699274;84;20909;-79
2021/07/16 06:42:33;;;;;;;28.38;15.08;;;;;;;48.62;22.95;100643.66;1699390;84;21052;-79
2021/07/16 06:44:59;;;;;;;38.53;15.40;;;;;;;48.70;22.86;100641.80;1699523;83;21031;-81
2021/07/16 06:47:28;;;;;;;37.38;15.40;;;;;;;48.76;22.39;100643.21;1699634;83;21176;-80
2021/07/16 06:49:54;;;;;;;37.35;17.02;;;;;;;48.98;22.36;100651.73;1699241;83;21618;-79
2021/07/16 06:52:20;;;;;;;39.90;17.05;;;;;;;49.02;21.90;100653.64;1699413;84;20897;-82
2021/07/16 06:54:46;;;;;;;44.80;18.23;;;;;;;49.17;21.34;100642.50;1699349;84;20972;-81
2021/07/16 06:57:11;;;;;;;39.63;18.17;;;;;;;49.27;21.38;100647.42;1699359;83;20918;-84
2021/07/16 06:59:37;;;;;;;40.70;18.60;;;;;;;49.34;21.31;100643.20;1699507;83;21338;-80
2021/07/16 07:02:04;;;;;;;43.00;18.87;;;;;;;49.49;21.54;100652.20;1699195;83;21071;-79
2021/07/16 07:04:30;;;;;;;48.87;20.20;;;;;;;49.51;20.72;100645.28;1699389;83;21064;-81
2021/07/16 07:06:56;;;;;;;46.00;19.70;;;;;;;49.61;21.37;100642.89;1699218;83;21119;-81
2021/07/16 07:09:24;;;;;;;41.48;19.95;;;;;;;50.03;20.91;100639.27;1699482;83;20913;-86
2021/07/16 07:11:50;;;;;;;40.80;19.30;;;;;;;50.05;20.85;100645.25;1699067;83;21263;-81
2021/07/16 07:14:16;;;;;;;39.38;19.73;;;;;;;50.05;20.93;100640.17;1699275;83;21043;-80
2021/07/16 07:16:42;;;;;;;40.10;18.85;;;;;;;50.21;20.97;100637.77;1699268;83;21055;-81
2021/07/16 07:19:08;;;;;;;41.77;17.17;;;;;;;50.24;21.27;100638.13;1699263;83;21551;-81
2021/07/16 07:21:34;;;;;;;36.53;17.02;;;;;;;50.46;20.60;100635.70;1699307;83;20945;-78
2021/07/16 07:24:02;;;;;;;31.30;16.57;;;;;;;50.54;20.06;100637.28;1675862;84;21127;-81
2021/07/16 07:26:30;;;;;;;37.05;16.85;;;;;;;50.43;20.25;100641.09;1637760;86;21100;-81
2021/07/16 07:28:57;;;;;;;37.85;15.65;;;;;;;50.47;19.96;100632.17;1637510;87;21109;-81
2021/07/16 07:31:23;;;;;;;28.50;14.60;;;;;;;50.43;20.26;100634.69;1644533;85;21050;-80
2021/07/16 07:33:49;;;;;;;31.73;14.68;;;;;;;50.45;19.65;100637.00;1674471;85;20912;-81
2021/07/16 07:36:15;;;;;;;26.45;14.13;;;;;;;50.69;19.49;100634.80;1674474;85;21872;-80
2021/07/16 07:38:41;;;;;;;27.87;13.03;;;;;;;50.81;19.35;100634.76;1674124;85;21004;-81
2021/07/16 07:41:07;;;;;;;25.02;12.03;;;;;;;50.70;19.04;100636.34;1673672;85;21078;-81
2021/07/16 07:43:33;;;;;;;26.42;12.98;;;;;;;50.59;18.93;100635.02;1674542;85;21577;-81
2021/07/16 07:45:59;;;;;;;31.23;14.35;;;;;;;50.63;19.14;100638.40;1674313;85;20959;-81
2021/07/16 07:48:25;;;;;;;28.60;14.93;;;;;;;50.45;19.25;100637.80;1674431;85;21164;-81
2021/07/16 07:50:51;;;;;;;32.95;14.83;;;;;;;50.44;19.70;100626.19;1674077;85;21086;-81
2021/07/16 07:53:17;;;;;;;29.30;14.05;;;;;;;50.47;19.12;100629.30;1674429;85;20987;-79
2021/07/16 07:55:43;;;;;;;22.17;13.05;;;;;;;50.59;19.19;100628.61;1674482;85;20987;-81
2021/07/16 07:58:10;;;;;;;24.92;13.35;;;;;;;50.69;18.38;100626.19;1674614;85;21078;-81
2021/07/16 08:00:36;;;;;;;24.75;12.65;;;;;;;50.74;18.64;100624.55;1674135;85;21895;-82
2021/07/16 08:03:02;;;;;;;24.75;13.25;;;;;;;50.95;18.70;100619.83;1685451;81;21082;-81
2021/07/16 08:05:28;;;;;;;26.27;12.85;;;;;;;50.82;18.63;100618.30;1770980;81;21031;-81
2021/07/16 08:07:54;;;;;;;20.72;11.75;;;;;;;50.82;18.50;100615.44;1770788;81;21004;-80
2021/07/16 08:10:22;;;;;;;26.40;11.45;;;;;;;51.08;18.34;100617.70;1770868;80;20913;-82
2021/07/16 08:12:51;;;;;;;24.20;10.85;;;;;;;51.22;18.19;100617.11;1770449;81;21270;-82
2021/07/16 08:15:19;;;;;;;25.12;11.35;;;;;;;51.48;18.38;100611.48;1770713;81;20993;-82
2021/07/16 08:17:46;;;;;;;20.55;10.75;;;;;;;51.55;18.14;100614.36;1770903;80;21008;-81
2021/07/16 08:20:12;;;;;;;21.30;10.40;;;;;;;51.71;17.77;100620.49;1770902;80;21016;-81
2021/07/16 08:22:41;;;;;;;20.82;10.82;;;;;;;51.79;17.50;100609.13;1770792;80;21032;-82
2021/07/16 08:25:09;;;;;;;24.27;9.20;;;;;;;51.77;17.62;100614.01;1732600;81;21198;-82
2021/07/16 08:27:35;;;;;;;15.38;8.43;;;;;;;51.88;17.15;100611.56;1732362;82;21530;-82
2021/07/16 08:30:01;;;;;;;15.68;8.90;;;;;;;51.42;17.42;100608.56;1731108;82;21098;-82
2021/07/16 08:32:27;;;;;;;17.62;8.48;;;;;;;51.39;17.66;100619.72;1722152;83;21613;-82
2021/07/16 08:34:53;;;;;;;15.48;8.15;;;;;;;51.48;17.51;100612.91;1722097;83;20996;-79
2021/07/16 08:37:19;;;;;;;9.93;7.67;;;;;;;51.68;18.11;100614.41;1722155;83;21933;-83
2021/07/16 08:39:48;;;;;;;15.35;6.87;;;;;;;51.86;17.68;100610.56;1722168;83;20872;-82
2021/07/16 08:42:14;;;;;;;12.70;6.85;;;;;;;51.73;16.52;100609.89;1721326;83;21591;-82
2021/07/16 08:44:44;;;;;;;12.47;6.90;;;;;;;51.24;17.05;100608.70;1721725;83;20995;-80
2021/07/16 08:47:11;;;;;;;8.80;6.53;;;;;;;50.97;17.65;100614.98;1722044;83;21166;-78
2021/07/16 08:49:39;;;;;;;13.38;6.87;;;;;;;50.89;17.05;100610.49;1721769;83;21159;-80
2021/07/16 08:52:07;;;;;;;15.95;6.22;;;;;;;50.40;17.34;100608.52;1722026;83;21031;-79
2021/07/16 08:54:38;;;;;;;8.50;6.28;;;;;;;50.44;17.36;100607.53;1722029;83;21119;-80
2021/07/16 08:57:02;;;;;;;6.20;5.45;;;;;;;50.30;17.35;100610.18;1718025;83;21109;-80
2021/07/16 08:59:28;;;;;;;10.23;5.85;;;;;;;50.28;17.37;100609.20;1697827;83;21015;-78
2021/07/16 09:01:54;;;;;;;10.10;5.65;;;;;;;50.30;17.37;100610.18;1721745;83;21081;-79
2021/07/16 09:04:24;;;;;;;9.48;5.47;;;;;;;50.33;17.33;100606.23;1717782;83;20975;-79
2021/07/16 09:06:52;;;;;;;;;;;;;;;50.48;16.95;100607.89;1724526;83;21028;-79
2021/07/16 09:09:31;;;;;;;11.38;5.53;;;;;;;50.64;16.98;100600.53;1722111;83;20175;-79
2021/07/16 09:11:58;;;;;;;13.53;5.87;;;;;;;50.61;17.01;100600.81;1698935;84;21060;-80
2021/07/16 09:14:30;;;;;;;11.03;5.53;;;;;;;50.30;16.99;100606.55;1679941;84;21255;-77
2021/07/16 09:17:05;;;;;;;9.83;5.12;;;;;;;49.89;17.54;100603.95;1671126;84;21573;-79
2021/07/16 09:19:51;;;;;;;8.45;5.50;;;;;;;49.71;17.31;100595.37;1671337;84;21060;-79
2021/07/16 09:22:25;;;;;;;9.68;5.50;;;;;;;49.49;17.87;100599.85;1638973;86;21019;-79
2021/07/16 09:24:57;;;;;;;11.10;4.75;;;;;;;49.32;17.67;100602.19;1636867;87;21064;-80
2021/07/16 09:27:37;;;;;;;11.48;5.47;;;;;;;49.20;18.24;100607.08;1662456;85;21341;-78
2021/07/16 09:30:22;;;;;;;8.73;5.00;;;;;;;49.02;18.04;100596.39;1662772;85;21547;-84
2021/07/16 09:32:58;;;;;;;9.40;4.95;;;;;;;48.72;17.96;100599.80;1622923;87;21103;-79
2021/07/16 09:35:37;;;;;;;9.58;4.40;;;;;;;48.60;18.55;100600.50;1545787;92;21606;-79
2021/07/16 09:38:06;;;;;;;12.15;4.35;;;;;;;48.36;18.42;100591.86;1499152;95;21169;-80
2021/07/16 09:40:39;;;;;;;17.17;4.67;;;;;;;48.32;18.89;100594.85;1481546;95;21294;-79
2021/07/16 09:43:13;;;;;;;7.28;4.62;;;;;;;48.20;18.91;100593.45;1499549;95;21843;-78
2021/07/16 09:45:43;;;;;;;9.70;4.72;;;;;;;47.82;19.02;100588.58;1499713;95;21137;-78
2021/07/16 09:48:41;;;;;;;9.43;4.22;;;;;;;47.51;19.50;100594.68;1471498;97;21197;-79
2021/07/16 09:51:15;;;;;;;9.25;4.87;;;;;;;47.12;19.50;100585.38;1427494;100;21173;-80
2021/07/16 09:53:49;;;;;;;14.28;5.28;;;;;;;46.88;19.40;100588.02;1427610;100;21582;-80
2021/07/16 09:56:26;;;;;;;8.78;5.10;;;;;;;46.58;19.59;100579.08;1427350;100;21098;-80
2021/07/16 09:59:07;;;;;;;8.70;4.95;;;;;;;46.36;20.12;100584.05;1427716;100;21118;-79
2021/07/16 10:01:37;;;;;;;11.43;4.08;;;;;;;46.29;19.68;100575.19;1427753;99;21122;-80
2021/07/16 10:04:08;;;;;;;9.77;4.27;;;;;;;46.20;20.27;100579.00;1407002;102;21196;-80
2021/07/16 10:06:35;;;;;;;9.60;4.30;;;;;;;45.72;20.26;100571.16;1366683;105;21174;-80
2021/07/16 10:09:02;;;;;;;8.98;4.20;;;;;;;45.45;20.44;100567.55;1365013;104;21229;-79
2021/07/16 10:11:31;;;;;;;11.33;4.30;;;;;;;45.15;21.37;100563.38;1367066;105;21671;-79
2021/07/16 10:13:58;;;;;;;8.03;4.45;;;;;;;45.20;21.42;100556.97;1390920;103;21268;-80
2021/07/16 10:16:24;;;;;;;7.28;4.10;;;;;;;45.15;21.28;100554.19;1387271;103;21138;-79
2021/07/16 10:18:53;;;;;;;12.33;4.53;;;;;;;45.10;21.73;100555.69;1376728;104;21232;-82
2021/07/16 10:21:21;;;;;;;9.10;4.53;;;;;;;44.94;21.84;100552.02;1397216;99;21702;-86
2021/07/16 10:23:50;;;;;;;9.48;4.53;;;;;;;44.56;22.42;100551.04;1428311;99;21115;-80
2021/07/16 10:26:19;;;;;;;7.58;4.75;;;;;;;44.45;22.96;100552.34;1486949;95;21126;-79
2021/07/16 10:28:45;;;;;;;9.08;4.83;;;;;;;44.37;22.57;100546.94;1527738;92;21070;-79
2021/07/16 10:31:33;;;;;;;9.63;5.00;;;;;;;44.36;22.96;100543.94;1544297;92;21213;-80
2021/07/16 10:34:13;;;;;;;9.03;4.87;;;;;;;44.47;23.19;100538.39;1544304;92;21090;-78
2021/07/16 10:36:45;;;;;;;15.00;5.17;;;;;;;44.32;23.45;100550.45;1544564;92;21078;-79
2021/07/16 10:39:21;;;;;;;7.90;5.53;;;;;;;44.32;23.08;100544.12;1544383;92;21082;-79
2021/07/16 10:41:48;;;;;;;12.47;5.47;;;;;;;44.17;23.00;100538.50;1467038;96;21137;-80
2021/07/16 10:44:19;;;;;;;11.28;5.17;;;;;;;44.04;23.50;100535.87;1526672;89;21108;-79
2021/07/16 10:46:45;;;;;;;10.58;4.87;;;;;;;44.06;23.82;100541.18;1603183;87;21120;-78
2021/07/16 10:49:14;;;;;;;15.45;5.30;;;;;;;43.86;23.49;100534.82;1603285;89;21824;-79
2021/07/16 10:51:41;;;;;;;16.23;5.67;;;;;;;43.63;23.62;100538.59;1602403;88;21031;-78
2021/07/16 10:54:13;;;;;;;11.05;5.42;;;;;;;43.48;24.09;100533.68;1600149;89;21140;-79
2021/07/16 10:56:48;;;;;;;9.30;5.53;;;;;;;43.57;24.04;100534.88;1605775;88;21570;-78
2021/07/16 10:59:45;;;;;;;11.80;6.20;;;;;;;43.41;23.72;100527.61;1586596;90;21108;-75
2021/07/16 11:02:44;;;;;;;13.13;6.67;;;;;;;43.27;23.91;100527.75;1638776;87;21088;-83
2021/07/16 11:05:35;;;;;;;19.52;5.87;;;;;;;43.22;24.38;100528.45;1694809;84;21030;-80
2021/07/16 11:08:03;;;;;;;14.35;6.47;;;;;;;43.09;24.46;100523.02;1695113;84;21664;-81
2021/07/16 11:10:50;;;;;;;17.62;6.25;;;;;;;43.02;24.68;100517.75;1694988;84;21080;-81
2021/07/16 11:13:37;;;;;;;14.47;6.28;;;;;;;43.01;24.38;100515.55;1695010;84;21027;-80
2021/07/16 11:16:29;;;;;;;11.00;5.75;;;;;;;43.07;25.41;100515.66;1694858;84;21073;-81
2021/07/16 11:19:13;;;;;;;13.85;5.80;;;;;;;43.34;25.16;100508.93;1694616;84;21067;-83
2021/07/16 11:21:47;;;;;;;12.15;5.75;;;;;;;43.30;24.83;100495.56;1694875;84;21003;-81